sensor_id;sensor_type;location;lat;lon;timestamp;temperature;humidity
4079;DHT22;2054;47.858;11.156;2024-02-14T03:46:24;1.70;99.90
4079;DHT22;2054;47.858;11.156;2024-02-14T03:48:50;1.60;99.90
4079;DHT22;2054;47.858;11.156;2024-02-14T03:51:18;1.60;99.90
4079;DHT22;2054;47.858;11.156;2024-02-14T03:53:46;1.60;99.90
4079;DHT22;2054;47.858;11.156;2024-02-14T03:56:13;1.60;99.90
4079;DHT22;2054;47.858;11.156;2024-02-14T03:58:43;1.50;99.90
4079;DHT22;2054;47.858;11.156;2024-02-14T04:01:10;1.40;99.90
4079;DHT22;2054;47.858;11.156;2024-02-14T04:03:38;1.40;99.90
4079;DHT22;2054;47.858;11.156;2024-02-14T04:06:05;1.40;99.90
4079;DHT22;2054;47.858;11.156;2024-02-14T04:08:32;1.40;99.90
4079;DHT22;2054;47.858;11.156;2024-02-14T04:11:00;1.30;99.90
4079;DHT22;2054;47.858;11.156;2024-02-14T04:13:27;1.30;99.90
4079;DHT22;2054;47.858;11.156;2024-02-14T04:15:54;1.40;99.90
4079;DHT22;2054;47.858;11.156;2024-02-14T04:18:21;1.40;99.90
4079;DHT22;2054;47.858;11.156;2024-02-14T04:20:49;1.50;99.90
4079;DHT22;2054;47.858;11.156;2024-02-14T04:23:16;1.60;99.90
4079;DHT22;2054;47.858;11.156;2024-02-14T04:25:44;1.60;99.90
4079;DHT22;2054;47.858;11.156;2024-02-14T04:28:11;1.60;99.90
4079;DHT22;2054;47.858;11.156;2024-02-14T04:30:38;1.70;99.90
4079;DHT22;2054;47.858;11.156;2024-02-14T04:33:07;1.70;99.90
4079;DHT22;2054;47.858;11.156;2024-02-14T04:35:36;1.80;99.90
4079;DHT22;2054;47.858;11.156;2024-02-14T04:38:04;2.00;99.90
4079;DHT22;2054;47.858;11.156;2024-02-14T04:40:32;2.10;99.90
4079;DHT22;2054;47.858;11.156;2024-02-14T04:43:00;2.20;99.90
4079;DHT22;2054;47.858;11.156;2024-02-14T04:45:27;2.30;99.90
4079;DHT22;2054;47.858;11.156;2024-02-14T04:47:54;2.40;99.90
4079;DHT22;2054;47.858;11.156;2024-02-14T04:50:21;2.40;99.90
4079;DHT22;2054;47.858;11.156;2024-02-14T04:52:48;2.60;99.90
4079;DHT22;2054;47.858;11.156;2024-02-14T04:55:16;2.70;99.90
4079;DHT22;2054;47.858;11.156;2024-02-14T04:57:44;2.90;99.90
4079;DHT22;2054;47.858;11.156;2024-02-14T05:00:12;2.80;99.90
4079;DHT22;2054;47.858;11.156;2024-02-14T05:02:40;2.80;99.90
4079;DHT22;2054;47.858;11.156;2024-02-14T05:05:09;2.80;99.90
4079;DHT22;2054;47.858;11.156;2024-02-14T05:07:35;2.70;99.90
4079;DHT22;2054;47.858;11.156;2024-02-14T05:10:03;2.70;99.90
4079;DHT22;2054;47.858;11.156;2024-02-14T05:12:32;2.80;99.90
4079;DHT22;2054;47.858;11.156;2024-02-14T05:14:59;2.80;99.90
4079;DHT22;2054;47.858;11.156;2024-02-14T05:17:26;2.90;99.90
4079;DHT22;2054;47.858;11.156;2024-02-14T05:19:53;2.90;99.90
4079;DHT22;2054;47.858;11.156;2024-02-14T05:22:20;2.90;99.90
4079;DHT22;2054;47.858;11.156;2024-02-14T05:24:47;3.00;99.90
4079;DHT22;2054;47.858;11.156;2024-02-14T05:27:14;3.10;99.90
4079;DHT22;2054;47.858;11.156;2024-02-14T05:29:42;3.00;99.90
4079;DHT22;2054;47.858;11.156;2024-02-14T05:32:09;3.00;99.90
4079;DHT22;2054;47.858;11.156;2024-02-14T05:34:36;3.10;99.90
4079;DHT22;2054;47.858;11.156;2024-02-14T05:37:03;3.10;99.90
4079;DHT22;2054;47.858;11.156;2024-02-14T05:39:31;3.20;99.90
4079;DHT22;2054;47.858;11.156;2024-02-14T05:41:58;3.30;99.90
4079;DHT22;2054;47.858;11.156;2024-02-14T05:44:25;3.30;99.90
4079;DHT22;2054;47.858;11.156;2024-02-14T05:46:54;3.30;99.90
4079;DHT22;2054;47.858;11.156;2024-02-14T05:49:21;3.20;99.90
4079;DHT22;2054;47.858;11.156;2024-02-14T05:51:50;3.30;99.90
4079;DHT22;2054;47.858;11.156;2024-02-14T05:54:18;3.30;99.90
4079;DHT22;2054;47.858;11.156;2024-02-14T05:56:45;3.30;99.90
4079;DHT22;2054;47.858;11.156;2024-02-14T05:59:12;3.30;99.90
4079;DHT22;2054;47.858;11.156;2024-02-14T06:01:39;3.40;99.90
4079;DHT22;2054;47.858;11.156;2024-02-14T06:04:08;3.40;99.90
4079;DHT22;2054;47.858;11.156;2024-02-14T06:06:36;3.40;99.90
4079;DHT22;2054;47.858;11.156;2024-02-14T06:09:03;3.40;99.90
4079;DHT22;2054;47.858;11.156;2024-02-14T06:11:35;3.40;99.90
4079;DHT22;2054;47.858;11.156;2024-02-14T06:14:04;3.40;99.90
4079;DHT22;2054;47.858;11.156;2024-02-14T06:16:31;3.40;99.90
4079;DHT22;2054;47.858;11.156;2024-02-14T06:18:59;3.50;99.90
4079;DHT22;2054;47.858;11.156;2024-02-14T06:21:27;3.50;99.90
4079;DHT22;2054;47.858;11.156;2024-02-14T06:23:54;3.60;99.90
4079;DHT22;2054;47.858;11.156;2024-02-14T06:26:21;3.70;99.90
4079;DHT22;2054;47.858;11.156;2024-02-14T06:28:48;3.70;99.90
4079;DHT22;2054;47.858;11.156;2024-02-14T06:31:19;3.80;99.90
4079;DHT22;2054;47.858;11.156;2024-02-14T06:33:47;3.80;99.90
4079;DHT22;2054;47.858;11.156;2024-02-14T06:36:14;3.80;99.90
4079;DHT22;2054;47.858;11.156;2024-02-14T06:38:42;3.90;99.90
4079;DHT22;2054;47.858;11.156;2024-02-14T06:41:11;3.90;99.90
4079;DHT22;2054;47.858;11.156;2024-02-14T06:43:38;3.90;99.90
4079;DHT22;2054;47.858;11.156;2024-02-14T06:46:05;3.90;99.90
4079;DHT22;2054;47.858;11.156;2024-02-14T06:48:33;3.90;99.90
4079;DHT22;2054;47.858;11.156;2024-02-14T06:51:01;3.90;99.90
4079;DHT22;2054;47.858;11.156;2024-02-14T06:53:27;4.00;99.90
4079;DHT22;2054;47.858;11.156;2024-02-14T06:55:57;4.00;99.90
4079;DHT22;2054;47.858;11.156;2024-02-14T06:58:24;4.20;99.90
4079;DHT22;2054;47.858;11.156;2024-02-14T07:00:51;4.20;99.90
4079;DHT22;2054;47.858;11.156;2024-02-14T07:03:18;4.20;99.90
4079;DHT22;2054;47.858;11.156;2024-02-14T07:05:45;4.30;99.90
4079;DHT22;2054;47.858;11.156;2024-02-14T07:08:12;4.40;99.90
4079;DHT22;2054;47.858;11.156;2024-02-14T07:10:39;4.50;99.90
4079;DHT22;2054;47.858;11.156;2024-02-14T07:13:07;4.60;99.90
4079;DHT22;2054;47.858;11.156;2024-02-14T07:15:34;4.70;99.90
4079;DHT22;2054;47.858;11.156;2024-02-14T07:18:01;4.70;99.90
4079;DHT22;2054;47.858;11.156;2024-02-14T07:20:29;4.80;99.90
4079;DHT22;2054;47.858;11.156;2024-02-14T07:22:55;4.90;99.90
4079;DHT22;2054;47.858;11.156;2024-02-14T07:25:23;4.90;99.90
4079;DHT22;2054;47.858;11.156;2024-02-14T07:27:50;5.10;99.90
4079;DHT22;2054;47.858;11.156;2024-02-14T07:30:18;5.10;99.90
4079;DHT22;2054;47.858;11.156;2024-02-14T07:32:45;5.20;99.90
4079;DHT22;2054;47.858;11.156;2024-02-14T07:35:12;5.20;99.90
4079;DHT22;2054;47.858;11.156;2024-02-14T07:37:39;5.30;99.90
4079;DHT22;2054;47.858;11.156;2024-02-14T07:40:08;5.30;99.90
4079;DHT22;2054;47.858;11.156;2024-02-14T07:42:35;5.30;99.90
4079;DHT22;2054;47.858;11.156;2024-02-14T07:45:03;5.40;99.90
4079;DHT22;2054;47.858;11.156;2024-02-14T07:47:31;5.50;99.90
4079;DHT22;2054;47.858;11.156;2024-02-14T07:49:58;5.60;99.90
4079;DHT22;2054;47.858;11.156;2024-02-14T07:52:25;5.70;99.90
4079;DHT22;2054;47.858;11.156;2024-02-14T07:54:52;5.80;99.90
4079;DHT22;2054;47.858;11.156;2024-02-14T07:57:21;5.80;99.90
4079;DHT22;2054;47.858;11.156;2024-02-14T07:59:48;5.90;99.90
4079;DHT22;2054;47.858;11.156;2024-02-14T08:02:15;6.10;99.90
4079;DHT22;2054;47.858;11.156;2024-02-14T08:04:43;6.20;99.90
4079;DHT22;2054;47.858;11.156;2024-02-14T08:07:12;6.40;99.90
4079;DHT22;2054;47.858;11.156;2024-02-14T08:09:39;6.50;99.90
4079;DHT22;2054;47.858;11.156;2024-02-14T08:12:06;6.60;99.90
4079;DHT22;2054;47.858;11.156;2024-02-14T08:14:34;6.80;99.90
4079;DHT22;2054;47.858;11.156;2024-02-14T08:17:02;7.00;99.90
4079;DHT22;2054;47.858;11.156;2024-02-14T08:19:29;7.20;99.90
4079;DHT22;2054;47.858;11.156;2024-02-14T08:21:57;7.40;99.90
4079;DHT22;2054;47.858;11.156;2024-02-14T08:24:25;7.50;99.90
4079;DHT22;2054;47.858;11.156;2024-02-14T08:26:53;7.50;99.90
4079;DHT22;2054;47.858;11.156;2024-02-14T08:29:20;7.80;99.90
4079;DHT22;2054;47.858;11.156;2024-02-14T08:31:47;7.70;99.90
4079;DHT22;2054;47.858;11.156;2024-02-14T08:34:14;7.90;99.90
4079;DHT22;2054;47.858;11.156;2024-02-14T08:36:41;8.00;99.90
4079;DHT22;2054;47.858;11.156;2024-02-14T08:39:10;8.30;99.90
4079;DHT22;2054;47.858;11.156;2024-02-14T08:41:38;8.40;99.90
4079;DHT22;2054;47.858;11.156;2024-02-14T08:44:07;8.60;99.90
4079;DHT22;2054;47.858;11.156;2024-02-14T08:46:33;8.70;99.90
4079;DHT22;2054;47.858;11.156;2024-02-14T08:49:01;8.80;99.90
4079;DHT22;2054;47.858;11.156;2024-02-14T08:51:33;8.90;99.90
4079;DHT22;2054;47.858;11.156;2024-02-14T08:54:00;9.10;99.90
4079;DHT22;2054;47.858;11.156;2024-02-14T08:56:31;9.20;99.90
4079;DHT22;2054;47.858;11.156;2024-02-14T08:58:59;9.30;99.90
4079;DHT22;2054;47.858;11.156;2024-02-14T09:01:27;9.50;99.90
4079;DHT22;2054;47.858;11.156;2024-02-14T09:03:56;9.80;99.90
4079;DHT22;2054;47.858;11.156;2024-02-14T09:06:24;10.00;99.90
4079;DHT22;2054;47.858;11.156;2024-02-14T09:08:52;10.20;99.90
4079;DHT22;2054;47.858;11.156;2024-02-14T09:11:19;10.40;99.90
4079;DHT22;2054;47.858;11.156;2024-02-14T09:13:47;10.70;99.90
4079;DHT22;2054;47.858;11.156;2024-02-14T09:16:16;10.90;99.90
4079;DHT22;2054;47.858;11.156;2024-02-14T09:18:45;11.00;99.90
4079;DHT22;2054;47.858;11.156;2024-02-14T09:21:13;11.10;99.90
4079;DHT22;2054;47.858;11.156;2024-02-14T09:23:41;11.10;99.90
4079;DHT22;2054;47.858;11.156;2024-02-14T09:26:10;11.10;99.90
4079;DHT22;2054;47.858;11.156;2024-02-14T09:28:40;11.20;99.90
4079;DHT22;2054;47.858;11.156;2024-02-14T09:31:08;11.20;99.90
4079;DHT22;2054;47.858;11.156;2024-02-14T09:33:37;11.20;99.90
4079;DHT22;2054;47.858;11.156;2024-02-14T09:36:06;11.10;99.90
4079;DHT22;2054;47.858;11.156;2024-02-14T09:38:33;11.00;99.90
4079;DHT22;2054;47.858;11.156;2024-02-14T09:41:06;10.90;99.90
4079;DHT22;2054;47.858;11.156;2024-02-14T09:43:38;10.80;99.90
4079;DHT22;2054;47.858;11.156;2024-02-14T09:46:08;10.70;99.90
4079;DHT22;2054;47.858;11.156;2024-02-14T09:48:36;10.70;99.90
4079;DHT22;2054;47.858;11.156;2024-02-14T09:51:05;10.70;99.90
4079;DHT22;2054;47.858;11.156;2024-02-14T09:53:34;10.90;99.90
4079;DHT22;2054;47.858;11.156;2024-02-14T09:56:02;10.80;99.90
4079;DHT22;2054;47.858;11.156;2024-02-14T09:58:31;10.80;99.90
4079;DHT22;2054;47.858;11.156;2024-02-14T10:00:58;10.80;99.90
4079;DHT22;2054;47.858;11.156;2024-02-14T10:03:26;11.00;99.90
4079;DHT22;2054;47.858;11.156;2024-02-14T10:05:53;11.10;99.90
4079;DHT22;2054;47.858;11.156;2024-02-14T10:08:21;11.30;99.90
4079;DHT22;2054;47.858;11.156;2024-02-14T10:10:49;11.50;99.90
4079;DHT22;2054;47.858;11.156;2024-02-14T10:13:16;11.70;99.90
4079;DHT22;2054;47.858;11.156;2024-02-14T10:15:45;11.90;99.90
4079;DHT22;2054;47.858;11.156;2024-02-14T10:18:12;12.00;99.90
4079;DHT22;2054;47.858;11.156;2024-02-14T10:20:41;12.10;99.90
4079;DHT22;2054;47.858;11.156;2024-02-14T10:23:18;12.10;99.90
4079;DHT22;2054;47.858;11.156;2024-02-14T10:25:48;12.10;99.90
4079;DHT22;2054;47.858;11.156;2024-02-14T10:28:15;12.10;99.90
4079;DHT22;2054;47.858;11.156;2024-02-14T10:30:45;12.20;99.90
4079;DHT22;2054;47.858;11.156;2024-02-14T10:33:14;12.20;99.90
4079;DHT22;2054;47.858;11.156;2024-02-14T10:35:44;12.40;99.90
4079;DHT22;2054;47.858;11.156;2024-02-14T10:38:11;12.60;99.90
4079;DHT22;2054;47.858;11.156;2024-02-14T10:40:38;12.70;99.90
4079;DHT22;2054;47.858;11.156;2024-02-14T10:43:06;12.90;99.90
4079;DHT22;2054;47.858;11.156;2024-02-14T10:45:35;13.00;99.90
4079;DHT22;2054;47.858;11.156;2024-02-14T10:48:04;13.20;99.60
4079;DHT22;2054;47.858;11.156;2024-02-14T10:50:33;13.20;99.50
4079;DHT22;2054;47.858;11.156;2024-02-14T10:53:04;13.20;99.70
4079;DHT22;2054;47.858;11.156;2024-02-14T10:55:33;13.20;99.90
4079;DHT22;2054;47.858;11.156;2024-02-14T10:58:01;13.30;99.90
4079;DHT22;2054;47.858;11.156;2024-02-14T11:00:29;13.50;99.60
4079;DHT22;2054;47.858;11.156;2024-02-14T11:02:58;13.60;99.80
4079;DHT22;2054;47.858;11.156;2024-02-14T11:05:27;13.60;99.80
4079;DHT22;2054;47.858;11.156;2024-02-14T11:07:54;13.60;99.30
4079;DHT22;2054;47.858;11.156;2024-02-14T11:10:23;13.50;99.50
4079;DHT22;2054;47.858;11.156;2024-02-14T11:12:50;13.60;99.90
4079;DHT22;2054;47.858;11.156;2024-02-14T11:15:19;13.60;99.30
4079;DHT22;2054;47.858;11.156;2024-02-14T11:17:47;13.60;99.10
4079;DHT22;2054;47.858;11.156;2024-02-14T11:20:19;13.60;99.30
4079;DHT22;2054;47.858;11.156;2024-02-14T11:22:53;13.60;99.10
4079;DHT22;2054;47.858;11.156;2024-02-14T11:25:30;13.60;99.00
4079;DHT22;2054;47.858;11.156;2024-02-14T11:27:58;13.70;99.20
4079;DHT22;2054;47.858;11.156;2024-02-14T11:30:33;13.80;98.90
4079;DHT22;2054;47.858;11.156;2024-02-14T11:33:16;13.90;99.10
4079;DHT22;2054;47.858;11.156;2024-02-14T11:35:46;14.00;99.20
4079;DHT22;2054;47.858;11.156;2024-02-14T11:38:13;14.00;98.80
4079;DHT22;2054;47.858;11.156;2024-02-14T11:40:42;14.10;98.20
4079;DHT22;2054;47.858;11.156;2024-02-14T11:43:12;14.30;98.40
4079;DHT22;2054;47.858;11.156;2024-02-14T11:45:41;14.40;97.90
4079;DHT22;2054;47.858;11.156;2024-02-14T11:48:11;14.50;98.20
4079;DHT22;2054;47.858;11.156;2024-02-14T11:50:39;14.50;98.60
4079;DHT22;2054;47.858;11.156;2024-02-14T11:53:07;14.50;97.70
4079;DHT22;2054;47.858;11.156;2024-02-14T11:55:37;14.50;97.50
4079;DHT22;2054;47.858;11.156;2024-02-14T11:58:08;14.40;97.80
4079;DHT22;2054;47.858;11.156;2024-02-14T12:00:37;14.60;98.00
4079;DHT22;2054;47.858;11.156;2024-02-14T12:03:06;14.70;97.50
4079;DHT22;2054;47.858;11.156;2024-02-14T12:05:34;14.60;97.40
4079;DHT22;2054;47.858;11.156;2024-02-14T12:08:01;14.60;97.50
4079;DHT22;2054;47.858;11.156;2024-02-14T12:10:31;14.50;97.20
4079;DHT22;2054;47.858;11.156;2024-02-14T12:12:58;14.60;97.40
4079;DHT22;2054;47.858;11.156;2024-02-14T12:15:27;14.60;97.20
4079;DHT22;2054;47.858;11.156;2024-02-14T12:17:55;14.40;97.30
4079;DHT22;2054;47.858;11.156;2024-02-14T12:20:22;14.40;96.60
4079;DHT22;2054;47.858;11.156;2024-02-14T12:22:50;14.20;96.40
4079;DHT22;2054;47.858;11.156;2024-02-14T12:25:17;14.40;97.10
4079;DHT22;2054;47.858;11.156;2024-02-14T12:27:50;14.50;97.30
4079;DHT22;2054;47.858;11.156;2024-02-14T12:30:17;14.50;96.70
4079;DHT22;2054;47.858;11.156;2024-02-14T12:32:46;14.60;96.80
4079;DHT22;2054;47.858;11.156;2024-02-14T12:35:13;14.50;95.60
4079;DHT22;2054;47.858;11.156;2024-02-14T12:37:40;14.50;95.90
4079;DHT22;2054;47.858;11.156;2024-02-14T12:40:08;14.30;95.50
4079;DHT22;2054;47.858;11.156;2024-02-14T12:42:36;14.20;95.60
4079;DHT22;2054;47.858;11.156;2024-02-14T12:45:04;13.90;96.10
4079;DHT22;2054;47.858;11.156;2024-02-14T12:47:31;13.80;96.50
4079;DHT22;2054;47.858;11.156;2024-02-14T12:50:02;13.80;96.20
4079;DHT22;2054;47.858;11.156;2024-02-14T12:52:27;13.80;96.70
4079;DHT22;2054;47.858;11.156;2024-02-14T12:54:54;13.80;96.30
4079;DHT22;2054;47.858;11.156;2024-02-14T12:57:21;14.00;95.70
4079;DHT22;2054;47.858;11.156;2024-02-14T12:59:49;14.00;96.20
4079;DHT22;2054;47.858;11.156;2024-02-14T13:02:17;14.10;96.40
4079;DHT22;2054;47.858;11.156;2024-02-14T13:04:44;14.30;96.70
4079;DHT22;2054;47.858;11.156;2024-02-14T13:07:12;14.40;96.10
4079;DHT22;2054;47.858;11.156;2024-02-14T13:09:39;14.60;96.50
4079;DHT22;2054;47.858;11.156;2024-02-14T13:12:06;14.60;95.90
4079;DHT22;2054;47.858;11.156;2024-02-14T13:14:35;14.70;96.40
4079;DHT22;2054;47.858;11.156;2024-02-14T13:17:02;14.70;96.10
4079;DHT22;2054;47.858;11.156;2024-02-14T13:19:30;14.60;95.90
4079;DHT22;2054;47.858;11.156;2024-02-14T13:21:57;14.50;96.90
4079;DHT22;2054;47.858;11.156;2024-02-14T13:24:26;14.50;96.50
4079;DHT22;2054;47.858;11.156;2024-02-14T13:26:54;14.50;96.50
4079;DHT22;2054;47.858;11.156;2024-02-14T13:29:23;14.40;96.30
4079;DHT22;2054;47.858;11.156;2024-02-14T13:31:51;14.30;96.40
4079;DHT22;2054;47.858;11.156;2024-02-14T13:34:18;14.30;96.00
4079;DHT22;2054;47.858;11.156;2024-02-14T13:36:45;14.30;96.50
4079;DHT22;2054;47.858;11.156;2024-02-14T13:39:12;14.50;96.20
4079;DHT22;2054;47.858;11.156;2024-02-14T13:41:41;14.60;96.20
4079;DHT22;2054;47.858;11.156;2024-02-14T13:44:10;14.60;95.30
4079;DHT22;2054;47.858;11.156;2024-02-14T13:46:37;14.70;95.70
4079;DHT22;2054;47.858;11.156;2024-02-14T13:49:04;14.80;95.20
4079;DHT22;2054;47.858;11.156;2024-02-14T13:51:33;14.80;94.80
4079;DHT22;2054;47.858;11.156;2024-02-14T13:54:00;14.70;95.10
4079;DHT22;2054;47.858;11.156;2024-02-14T13:56:27;14.70;94.70
4079;DHT22;2054;47.858;11.156;2024-02-14T13:58:55;14.80;94.60
4079;DHT22;2054;47.858;11.156;2024-02-14T14:01:22;14.80;94.70
4079;DHT22;2054;47.858;11.156;2024-02-14T14:03:52;14.80;94.70
4079;DHT22;2054;47.858;11.156;2024-02-14T14:06:20;14.80;94.70
4079;DHT22;2054;47.858;11.156;2024-02-14T14:08:49;14.80;94.90
4079;DHT22;2054;47.858;11.156;2024-02-14T14:11:17;14.90;94.90
4079;DHT22;2054;47.858;11.156;2024-02-14T14:13:44;15.10;94.00
4079;DHT22;2054;47.858;11.156;2024-02-14T14:16:12;15.10;94.40
4079;DHT22;2054;47.858;11.156;2024-02-14T14:18:39;15.20;93.80
4079;DHT22;2054;47.858;11.156;2024-02-14T14:21:06;15.20;94.30
4079;DHT22;2054;47.858;11.156;2024-02-14T14:23:33;15.30;94.90
4079;DHT22;2054;47.858;11.156;2024-02-14T14:26:00;15.40;94.80
4079;DHT22;2054;47.858;11.156;2024-02-14T14:28:28;15.30;94.80
4079;DHT22;2054;47.858;11.156;2024-02-14T14:30:57;15.30;95.10
4079;DHT22;2054;47.858;11.156;2024-02-14T14:33:27;15.40;94.80
4079;DHT22;2054;47.858;11.156;2024-02-14T14:35:54;15.30;95.20
4079;DHT22;2054;47.858;11.156;2024-02-14T14:38:21;15.10;94.90
4079;DHT22;2054;47.858;11.156;2024-02-14T14:40:49;15.00;95.30
4079;DHT22;2054;47.858;11.156;2024-02-14T14:43:18;15.10;94.90
4079;DHT22;2054;47.858;11.156;2024-02-14T14:45:46;15.10;94.60
4079;DHT22;2054;47.858;11.156;2024-02-14T14:48:15;15.10;94.70
4079;DHT22;2054;47.858;11.156;2024-02-14T14:50:44;15.10;95.10
4079;DHT22;2054;47.858;11.156;2024-02-14T14:53:11;15.10;94.60
4079;DHT22;2054;47.858;11.156;2024-02-14T14:55:50;15.00;94.60
4079;DHT22;2054;47.858;11.156;2024-02-14T14:58:17;14.80;95.10
4079;DHT22;2054;47.858;11.156;2024-02-14T15:00:44;14.60;95.30
4079;DHT22;2054;47.858;11.156;2024-02-14T15:03:11;14.60;95.40
4079;DHT22;2054;47.858;11.156;2024-02-14T15:05:39;14.60;95.20
4079;DHT22;2054;47.858;11.156;2024-02-14T15:08:08;14.60;95.30
4079;DHT22;2054;47.858;11.156;2024-02-14T15:10:36;14.60;95.90
4079;DHT22;2054;47.858;11.156;2024-02-14T15:13:04;14.40;96.80
4079;DHT22;2054;47.858;11.156;2024-02-14T15:15:34;14.30;97.00
4079;DHT22;2054;47.858;11.156;2024-02-14T15:18:01;14.30;97.70
4079;DHT22;2054;47.858;11.156;2024-02-14T15:20:28;14.20;98.30
4079;DHT22;2054;47.858;11.156;2024-02-14T15:22:56;14.10;99.10
4079;DHT22;2054;47.858;11.156;2024-02-14T15:25:24;14.00;99.70
4079;DHT22;2054;47.858;11.156;2024-02-14T15:27:52;13.70;99.90
4079;DHT22;2054;47.858;11.156;2024-02-14T15:30:21;13.70;99.90
4079;DHT22;2054;47.858;11.156;2024-02-14T15:33:06;13.60;99.90
4079;DHT22;2054;47.858;11.156;2024-02-14T15:35:48;13.50;99.90
4079;DHT22;2054;47.858;11.156;2024-02-14T15:38:15;13.50;99.90
4079;DHT22;2054;47.858;11.156;2024-02-14T15:40:46;13.50;99.90
4079;DHT22;2054;47.858;11.156;2024-02-14T15:43:15;13.40;99.90
4079;DHT22;2054;47.858;11.156;2024-02-14T15:45:42;13.40;99.90
4079;DHT22;2054;47.858;11.156;2024-02-14T15:48:09;13.40;99.90
4079;DHT22;2054;47.858;11.156;2024-02-14T15:50:38;13.40;99.90
4079;DHT22;2054;47.858;11.156;2024-02-14T15:53:05;13.40;99.90
4079;DHT22;2054;47.858;11.156;2024-02-14T15:55:32;13.40;99.90
4079;DHT22;2054;47.858;11.156;2024-02-14T15:58:01;13.50;99.90
4079;DHT22;2054;47.858;11.156;2024-02-14T16:00:28;13.40;99.90
4079;DHT22;2054;47.858;11.156;2024-02-14T16:02:57;13.30;99.90
4079;DHT22;2054;47.858;11.156;2024-02-14T16:05:24;13.40;99.90
4079;DHT22;2054;47.858;11.156;2024-02-14T16:07:51;13.50;99.90
4079;DHT22;2054;47.858;11.156;2024-02-14T16:10:19;13.50;99.90
4079;DHT22;2054;47.858;11.156;2024-02-14T16:12:46;13.40;99.90
4079;DHT22;2054;47.858;11.156;2024-02-14T16:15:16;13.20;99.90
4079;DHT22;2054;47.858;11.156;2024-02-14T16:17:44;13.20;99.90
4079;DHT22;2054;47.858;11.156;2024-02-14T16:20:13;13.20;99.90
4079;DHT22;2054;47.858;11.156;2024-02-14T16:22:40;13.10;99.90
4079;DHT22;2054;47.858;11.156;2024-02-14T16:25:08;13.00;99.90
4079;DHT22;2054;47.858;11.156;2024-02-14T16:27:35;13.00;99.90
4079;DHT22;2054;47.858;11.156;2024-02-14T16:30:02;13.00;99.90
4079;DHT22;2054;47.858;11.156;2024-02-14T16:32:32;13.00;99.90
4079;DHT22;2054;47.858;11.156;2024-02-14T16:34:59;13.00;99.90
4079;DHT22;2054;47.858;11.156;2024-02-14T16:37:26;13.00;99.90
4079;DHT22;2054;47.858;11.156;2024-02-14T16:39:53;12.90;99.90
4079;DHT22;2054;47.858;11.156;2024-02-14T16:42:21;12.80;99.90
4079;DHT22;2054;47.858;11.156;2024-02-14T16:44:48;12.80;99.90
4079;DHT22;2054;47.858;11.156;2024-02-14T16:47:15;12.80;99.90
4079;DHT22;2054;47.858;11.156;2024-02-14T16:49:43;12.80;99.90
4079;DHT22;2054;47.858;11.156;2024-02-14T16:52:10;12.80;99.90
4079;DHT22;2054;47.858;11.156;2024-02-14T16:54:37;12.80;99.90
4079;DHT22;2054;47.858;11.156;2024-02-14T16:57:04;12.70;99.90
4079;DHT22;2054;47.858;11.156;2024-02-14T16:59:35;12.80;99.90
4079;DHT22;2054;47.858;11.156;2024-02-14T17:02:03;12.80;99.90
4079;DHT22;2054;47.858;11.156;2024-02-14T17:04:31;12.70;99.90
4079;DHT22;2054;47.858;11.156;2024-02-14T17:06:59;12.70;99.90
4079;DHT22;2054;47.858;11.156;2024-02-14T17:09:27;12.80;99.90
4079;DHT22;2054;47.858;11.156;2024-02-14T17:11:54;12.80;99.90
4079;DHT22;2054;47.858;11.156;2024-02-14T17:14:22;12.70;99.90
4079;DHT22;2054;47.858;11.156;2024-02-14T17:16:50;12.60;99.90
4079;DHT22;2054;47.858;11.156;2024-02-14T17:19:21;12.50;99.90
4079;DHT22;2054;47.858;11.156;2024-02-14T17:21:48;12.50;99.90
4079;DHT22;2054;47.858;11.156;2024-02-14T17:24:16;12.50;99.90
4079;DHT22;2054;47.858;11.156;2024-02-14T17:26:43;12.50;99.90
4079;DHT22;2054;47.858;11.156;2024-02-14T17:29:10;12.40;99.90
4079;DHT22;2054;47.858;11.156;2024-02-14T17:31:38;12.30;99.90
4079;DHT22;2054;47.858;11.156;2024-02-14T17:34:05;12.20;99.90
4079;DHT22;2054;47.858;11.156;2024-02-14T17:36:32;12.20;99.90
4079;DHT22;2054;47.858;11.156;2024-02-14T17:38:59;12.20;99.90
4079;DHT22;2054;47.858;11.156;2024-02-14T17:41:31;12.20;99.90
4079;DHT22;2054;47.858;11.156;2024-02-14T17:44:00;12.30;99.90
4079;DHT22;2054;47.858;11.156;2024-02-14T17:46:28;12.30;99.90
4079;DHT22;2054;47.858;11.156;2024-02-14T17:48:56;12.40;99.90
4079;DHT22;2054;47.858;11.156;2024-02-14T17:51:24;12.50;99.90
4079;DHT22;2054;47.858;11.156;2024-02-14T17:53:53;12.50;99.90
4079;DHT22;2054;47.858;11.156;2024-02-14T17:56:20;12.50;99.90
4079;DHT22;2054;47.858;11.156;2024-02-14T17:58:51;12.60;99.90
4079;DHT22;2054;47.858;11.156;2024-02-14T18:01:19;12.60;99.90
4079;DHT22;2054;47.858;11.156;2024-02-14T18:03:46;12.50;99.90
4079;DHT22;2054;47.858;11.156;2024-02-14T18:06:13;12.50;99.90
4079;DHT22;2054;47.858;11.156;2024-02-14T18:08:40;12.40;99.90
4079;DHT22;2054;47.858;11.156;2024-02-14T18:11:07;12.40;99.90
4079;DHT22;2054;47.858;11.156;2024-02-14T18:13:34;12.40;99.90
4079;DHT22;2054;47.858;11.156;2024-02-14T18:16:03;12.40;99.90
4079;DHT22;2054;47.858;11.156;2024-02-14T18:18:30;12.30;99.90
4079;DHT22;2054;47.858;11.156;2024-02-14T18:20:58;12.30;99.90
4079;DHT22;2054;47.858;11.156;2024-02-14T18:23:25;12.30;99.90
4079;DHT22;2054;47.858;11.156;2024-02-14T18:25:52;12.30;99.90
4079;DHT22;2054;47.858;11.156;2024-02-14T18:28:20;12.30;99.90
4079;DHT22;2054;47.858;11.156;2024-02-14T18:30:47;12.30;99.90
4079;DHT22;2054;47.858;11.156;2024-02-14T18:33:15;12.30;99.90
4079;DHT22;2054;47.858;11.156;2024-02-14T18:35:42;12.20;99.90
4079;DHT22;2054;47.858;11.156;2024-02-14T18:38:09;12.20;99.90
4079;DHT22;2054;47.858;11.156;2024-02-14T18:40:36;12.20;99.90
4079;DHT22;2054;47.858;11.156;2024-02-14T18:43:04;12.10;99.90
4079;DHT22;2054;47.858;11.156;2024-02-14T18:45:31;12.00;99.90
4079;DHT22;2054;47.858;11.156;2024-02-14T18:47:59;12.00;99.90
4079;DHT22;2054;47.858;11.156;2024-02-14T18:50:27;12.00;99.90
4079;DHT22;2054;47.858;11.156;2024-02-14T18:52:54;11.90;99.90
4079;DHT22;2054;47.858;11.156;2024-02-14T18:55:23;11.90;99.90
4079;DHT22;2054;47.858;11.156;2024-02-14T18:57:50;11.80;99.90
4079;DHT22;2054;47.858;11.156;2024-02-14T19:00:18;11.70;99.90
4079;DHT22;2054;47.858;11.156;2024-02-14T19:02:45;11.60;99.90
4079;DHT22;2054;47.858;11.156;2024-02-14T19:05:12;11.60;99.90
4079;DHT22;2054;47.858;11.156;2024-02-14T19:07:41;11.50;99.90
4079;DHT22;2054;47.858;11.156;2024-02-14T19:10:09;11.50;99.90
4079;DHT22;2054;47.858;11.156;2024-02-14T19:12:36;11.40;99.90
4079;DHT22;2054;47.858;11.156;2024-02-14T19:15:04;11.40;99.90
4079;DHT22;2054;47.858;11.156;2024-02-14T19:17:31;11.30;99.90
4079;DHT22;2054;47.858;11.156;2024-02-14T19:19:59;11.30;99.90
4079;DHT22;2054;47.858;11.156;2024-02-14T19:22:28;11.20;99.90
4079;DHT22;2054;47.858;11.156;2024-02-14T19:24:57;11.10;99.90
4079;DHT22;2054;47.858;11.156;2024-02-14T19:27:24;11.10;99.90
4079;DHT22;2054;47.858;11.156;2024-02-14T19:29:51;11.00;99.90
4079;DHT22;2054;47.858;11.156;2024-02-14T19:32:18;10.90;99.90
4079;DHT22;2054;47.858;11.156;2024-02-14T19:34:45;10.80;99.90
4079;DHT22;2054;47.858;11.156;2024-02-14T19:37:13;10.80;99.90
4079;DHT22;2054;47.858;11.156;2024-02-14T19:39:40;10.80;99.90
4079;DHT22;2054;47.858;11.156;2024-02-14T19:42:08;10.70;99.90